sensor_id;sensor_type;location;lat;lon;timestamp;pressure;altitude;pressure_sealevel;temperature;humidity
75438;BME280;64015;49.392;15.582;2023-09-12T00:01:32;95588.09;;;15.06;98.54
75438;BME280;64015;49.392;15.582;2023-09-12T00:03:59;95583.69;;;15.01;98.34
75438;BME280;64015;49.392;15.582;2023-09-12T00:06:25;95584.78;;;15.00;98.24
75438;BME280;64015;49.392;15.582;2023-09-12T00:08:54;95577.19;;;14.93;98.22
75438;BME280;64015;49.392;15.582;2023-09-12T00:11:19;95578.09;;;14.89;98.14
75438;BME280;64015;49.392;15.582;2023-09-12T00:13:45;95577.03;;;14.90;98.47
75438;BME280;64015;49.392;15.582;2023-09-12T00:16:10;95580.75;;;14.89;98.44
75438;BME280;64015;49.392;15.582;2023-09-12T00:18:37;95560.81;;;14.78;97.73
75438;BME280;64015;49.392;15.582;2023-09-12T00:21:03;95578.53;;;14.82;97.73
75438;BME280;64015;49.392;15.582;2023-09-12T00:23:29;95575.97;;;14.77;97.72
75438;BME280;64015;49.392;15.582;2023-09-12T00:25:54;95574.38;;;14.76;97.93
75438;BME280;64015;49.392;15.582;2023-09-12T00:28:21;95572.81;;;14.75;98.40
75438;BME280;64015;49.392;15.582;2023-09-12T00:30:47;95570.56;;;14.69;98.27
75438;BME280;64015;49.392;15.582;2023-09-12T00:33:13;95572.56;;;14.63;98.70
75438;BME280;64015;49.392;15.582;2023-09-12T00:35:39;95571.28;;;14.61;99.12
75438;BME280;64015;49.392;15.582;2023-09-12T00:38:05;95559.66;;;14.56;98.74
75438;BME280;64015;49.392;15.582;2023-09-12T00:40:32;95559.56;;;14.48;99.94
75438;BME280;64015;49.392;15.582;2023-09-12T00:42:58;95566.44;;;14.49;99.47
75438;BME280;64015;49.392;15.582;2023-09-12T00:45:25;95561.56;;;14.42;99.33
75438;BME280;64015;49.392;15.582;2023-09-12T00:47:51;95562.41;;;14.38;99.84
75438;BME280;64015;49.392;15.582;2023-09-12T00:50:17;95556.03;;;14.39;100.00
75438;BME280;64015;49.392;15.582;2023-09-12T00:52:45;95554.44;;;14.38;99.96
75438;BME280;64015;49.392;15.582;2023-09-12T00:55:11;95551.97;;;14.28;100.00
75438;BME280;64015;49.392;15.582;2023-09-12T00:57:37;95557.41;;;14.36;100.00
75438;BME280;64015;49.392;15.582;2023-09-12T01:00:04;95556.81;;;14.39;100.00
75438;BME280;64015;49.392;15.582;2023-09-12T01:02:40;95565.03;;;14.38;100.00
75438;BME280;64015;49.392;15.582;2023-09-12T01:05:07;95560.63;;;14.33;100.00
75438;BME280;64015;49.392;15.582;2023-09-12T01:07:33;95554.75;;;14.36;100.00
75438;BME280;64015;49.392;15.582;2023-09-12T01:09:59;95560.34;;;14.35;100.00
75438;BME280;64015;49.392;15.582;2023-09-12T01:12:25;95560.94;;;14.32;100.00
75438;BME280;64015;49.392;15.582;2023-09-12T01:14:50;95556.81;;;14.26;100.00
75438;BME280;64015;49.392;15.582;2023-09-12T01:17:16;95562.41;;;14.24;100.00
75438;BME280;64015;49.392;15.582;2023-09-12T01:19:42;95555.94;;;14.16;100.00
75438;BME280;64015;49.392;15.582;2023-09-12T01:27:38;95554.16;;;13.98;100.00
75438;BME280;64015;49.392;15.582;2023-09-12T01:30:07;95572.09;;;14.01;100.00
75438;BME280;64015;49.392;15.582;2023-09-12T01:32:34;95570.63;;;13.95;100.00
75438;BME280;64015;49.392;15.582;2023-09-12T01:35:00;95572.09;;;13.88;100.00
75438;BME280;64015;49.392;15.582;2023-09-12T01:37:31;95578.25;;;13.83;100.00
75438;BME280;64015;49.392;15.582;2023-09-12T01:39:57;95576.00;;;13.76;100.00
75438;BME280;64015;49.392;15.582;2023-09-12T01:42:24;95582.16;;;13.72;100.00
75438;BME280;64015;49.392;15.582;2023-09-12T01:44:55;95566.56;;;13.70;100.00
75438;BME280;64015;49.392;15.582;2023-09-12T01:47:22;95576.00;;;13.76;100.00
75438;BME280;64015;49.392;15.582;2023-09-12T01:49:51;95573.44;;;13.71;100.00
75438;BME280;64015;49.392;15.582;2023-09-12T01:52:19;95575.00;;;13.72;100.00
75438;BME280;64015;49.392;15.582;2023-09-12T01:54:46;95575.78;;;13.73;100.00
75438;BME280;64015;49.392;15.582;2023-09-12T01:57:13;95570.00;;;13.71;100.00
75438;BME280;64015;49.392;15.582;2023-09-12T01:59:39;95577.34;;;13.74;100.00
75438;BME280;64015;49.392;15.582;2023-09-12T02:02:04;95575.59;;;13.69;100.00
75438;BME280;64015;49.392;15.582;2023-09-12T02:04:30;95580.97;;;13.64;100.00
75438;BME280;64015;49.392;15.582;2023-09-12T02:06:56;95571.25;;;13.60;100.00
75438;BME280;64015;49.392;15.582;2023-09-12T02:09:23;95578.97;;;13.56;100.00
75438;BME280;64015;49.392;15.582;2023-09-12T02:11:50;95572.91;;;13.56;100.00
75438;BME280;64015;49.392;15.582;2023-09-12T02:14:16;95581.44;;;13.53;100.00
75438;BME280;64015;49.392;15.582;2023-09-12T02:16:43;95579.28;;;13.55;100.00
75438;BME280;64015;49.392;15.582;2023-09-12T02:19:09;95579.28;;;13.55;100.00
75438;BME280;64015;49.392;15.582;2023-09-12T02:21:34;95576.72;;;13.50;100.00
75438;BME280;64015;49.392;15.582;2023-09-12T02:24:00;95576.44;;;13.51;100.00
75438;BME280;64015;49.392;15.582;2023-09-12T02:26:26;95568.31;;;13.61;100.00
75438;BME280;64015;49.392;15.582;2023-09-12T02:28:51;95566.94;;;13.64;100.00
75438;BME280;64015;49.392;15.582;2023-09-12T02:31:17;95582.03;;;13.63;100.00
75438;BME280;64015;49.392;15.582;2023-09-12T02:33:43;95565.34;;;13.63;100.00
75438;BME280;64015;49.392;15.582;2023-09-12T02:36:08;95576.56;;;13.60;100.00
75438;BME280;64015;49.392;15.582;2023-09-12T02:38:34;95581.13;;;13.54;100.00
75438;BME280;64015;49.392;15.582;2023-09-12T02:41:00;95577.69;;;13.54;100.00
75438;BME280;64015;49.392;15.582;2023-09-12T02:43:27;95581.00;;;13.45;100.00
75438;BME280;64015;49.392;15.582;2023-09-12T02:45:52;95585.31;;;13.41;100.00
75438;BME280;64015;49.392;15.582;2023-09-12T02:48:18;95584.91;;;13.34;100.00
75438;BME280;64015;49.392;15.582;2023-09-12T02:50:45;95589.63;;;13.37;100.00
75438;BME280;64015;49.392;15.582;2023-09-12T02:53:10;95584.31;;;13.37;100.00
75438;BME280;64015;49.392;15.582;2023-09-12T02:55:39;95590.22;;;13.34;100.00
75438;BME280;64015;49.392;15.582;2023-09-12T02:58:06;95585.97;;;13.33;100.00
75438;BME280;64015;49.392;15.582;2023-09-12T03:00:50;95591.28;;;13.33;100.00
75438;BME280;64015;49.392;15.582;2023-09-12T03:03:20;95590.28;;;13.29;100.00
75438;BME280;64015;49.392;15.582;2023-09-12T03:05:46;95591.75;;;13.35;100.00
75438;BME280;64015;49.392;15.582;2023-09-12T03:08:11;95582.31;;;13.29;100.00
75438;BME280;64015;49.392;15.582;2023-09-12T03:10:37;95580.88;;;13.37;100.00
75438;BME280;64015;49.392;15.582;2023-09-12T03:13:03;95585.44;;;13.50;100.00
75438;BME280;64015;49.392;15.582;2023-09-12T03:15:28;95576.66;;;13.36;100.00
75438;BME280;64015;49.392;15.582;2023-09-12T03:17:54;95585.63;;;13.54;100.00
75438;BME280;64015;49.392;15.582;2023-09-12T03:20:20;95581.84;;;13.60;100.00
75438;BME280;64015;49.392;15.582;2023-09-12T03:22:46;95582.44;;;13.57;100.00
75438;BME280;64015;49.392;15.582;2023-09-12T03:25:11;95587.09;;;13.46;100.00
75438;BME280;64015;49.392;15.582;2023-09-12T03:27:37;95581.16;;;13.35;100.00
75438;BME280;64015;49.392;15.582;2023-09-12T03:30:04;95584.69;;;13.31;100.00
75438;BME280;64015;49.392;15.582;2023-09-12T03:32:30;95591.22;;;13.20;100.00
75438;BME280;64015;49.392;15.582;2023-09-12T03:34:56;95588.34;;;13.16;100.00
75438;BME280;64015;49.392;15.582;2023-09-12T03:37:21;95591.03;;;13.11;100.00
75438;BME280;64015;49.392;15.582;2023-09-12T03:39:47;95586.03;;;13.09;100.00
75438;BME280;64015;49.392;15.582;2023-09-12T03:42:12;95588.66;;;13.09;100.00
75438;BME280;64015;49.392;15.582;2023-09-12T03:44:38;95594.84;;;13.05;100.00
75438;BME280;64015;49.392;15.582;2023-09-12T03:47:04;95584.91;;;12.97;100.00
75438;BME280;64015;49.392;15.582;2023-09-12T03:49:30;95592.34;;;12.95;100.00
75438;BME280;64015;49.392;15.582;2023-09-12T03:51:55;95586.63;;;12.88;100.00
75438;BME280;64015;49.392;15.582;2023-09-12T03:54:21;95580.84;;;12.81;100.00
75438;BME280;64015;49.392;15.582;2023-09-12T03:56:46;95587.19;;;12.85;100.00
75438;BME280;64015;49.392;15.582;2023-09-12T03:59:12;95585.16;;;12.77;100.00
75438;BME280;64015;49.392;15.582;2023-09-12T04:01:38;95583.50;;;12.81;100.00
75438;BME280;64015;49.392;15.582;2023-09-12T04:04:04;95595.69;;;12.82;100.00
75438;BME280;64015;49.392;15.582;2023-09-12T04:06:29;95595.69;;;12.82;100.00
75438;BME280;64015;49.392;15.582;2023-09-12T04:08:55;95581.94;;;12.80;100.00
75438;BME280;64015;49.392;15.582;2023-09-12T04:11:20;95589.38;;;12.78;100.00
75438;BME280;64015;49.392;15.582;2023-09-12T04:13:46;95591.53;;;12.76;100.00
75438;BME280;64015;49.392;15.582;2023-09-12T04:16:11;95593.16;;;12.71;100.00
75438;BME280;64015;49.392;15.582;2023-09-12T04:18:38;95586.28;;;12.70;100.00
75438;BME280;64015;49.392;15.582;2023-09-12T04:21:03;95592.03;;;12.78;100.00
75438;BME280;64015;49.392;15.582;2023-09-12T04:23:29;95589.88;;;12.80;100.00
75438;BME280;64015;49.392;15.582;2023-09-12T04:25:55;95593.03;;;12.82;100.00
75438;BME280;64015;49.392;15.582;2023-09-12T04:28:21;95590.22;;;12.73;100.00
75438;BME280;64015;49.392;15.582;2023-09-12T04:30:46;95586.28;;;12.70;100.00
75438;BME280;64015;49.392;15.582;2023-09-12T04:33:12;95582.56;;;12.71;100.00
75438;BME280;64015;49.392;15.582;2023-09-12T04:35:38;95583.06;;;12.74;100.00
75438;BME280;64015;49.392;15.582;2023-09-12T04:38:03;95586.94;;;12.81;100.00
75438;BME280;64015;49.392;15.582;2023-09-12T04:40:29;95584.00;;;12.83;100.00
75438;BME280;64015;49.392;15.582;2023-09-12T04:42:55;95586.63;;;12.88;100.00
75438;BME280;64015;49.392;15.582;2023-09-12T04:45:20;95585.69;;;12.97;100.00
75438;BME280;64015;49.392;15.582;2023-09-12T04:47:46;95583.50;;;12.99;100.00
75438;BME280;64015;49.392;15.582;2023-09-12T04:50:12;95578.81;;;12.96;100.00
75438;BME280;64015;49.392;15.582;2023-09-12T04:52:38;95579.81;;;13.00;100.00
75438;BME280;64015;49.392;15.582;2023-09-12T04:55:04;95583.25;;;13.01;100.00
75438;BME280;64015;49.392;15.582;2023-09-12T04:57:30;95585.31;;;13.04;100.00
75438;BME280;64015;49.392;15.582;2023-09-12T04:59:56;95581.00;;;13.08;100.00
75438;BME280;64015;49.392;15.582;2023-09-12T05:02:24;95583.59;;;13.13;100.00
75438;BME280;64015;49.392;15.582;2023-09-12T05:04:50;95583.03;;;13.16;100.00
75438;BME280;64015;49.392;15.582;2023-09-12T05:07:16;95581.91;;;13.22;100.00
75438;BME280;64015;49.392;15.582;2023-09-12T05:09:42;95580.97;;;13.32;100.00
75438;BME280;64015;49.392;15.582;2023-09-12T05:12:08;95583.75;;;13.40;100.00
75438;BME280;64015;49.392;15.582;2023-09-12T05:14:33;95588.47;;;13.43;100.00
75438;BME280;64015;49.392;15.582;2023-09-12T05:16:59;95588.38;;;13.49;100.00
75438;BME280;64015;49.392;15.582;2023-09-12T05:19:26;95595.16;;;13.55;100.00
75438;BME280;64015;49.392;15.582;2023-09-12T05:21:52;95589.09;;;13.54;100.00
75438;BME280;64015;49.392;15.582;2023-09-12T05:24:18;95594.03;;;13.61;100.00
75438;BME280;64015;49.392;15.582;2023-09-12T05:26:44;95593.88;;;13.71;100.00
75438;BME280;64015;49.392;15.582;2023-09-12T05:29:09;95593.66;;;13.81;100.00
75438;BME280;64015;49.392;15.582;2023-09-12T05:31:35;95587.22;;;13.87;100.00
75438;BME280;64015;49.392;15.582;2023-09-12T05:34:01;95600.81;;;13.99;100.00
75438;BME280;64015;49.392;15.582;2023-09-12T05:36:26;95586.19;;;14.15;100.00
75438;BME280;64015;49.392;15.582;2023-09-12T05:38:52;95598.38;;;14.30;100.00
75438;BME280;64015;49.392;15.582;2023-09-12T05:41:18;95597.91;;;14.42;100.00
75438;BME280;64015;49.392;15.582;2023-09-12T05:43:43;95586.22;;;14.43;100.00
75438;BME280;64015;49.392;15.582;2023-09-12T05:46:09;95593.88;;;14.58;100.00
75438;BME280;64015;49.392;15.582;2023-09-12T05:48:35;95595.53;;;14.68;100.00
75438;BME280;64015;49.392;15.582;2023-09-12T05:51:01;95598.50;;;14.80;99.45
75438;BME280;64015;49.392;15.582;2023-09-12T05:53:26;95594.34;;;14.87;99.40
75438;BME280;64015;49.392;15.582;2023-09-12T05:55:52;95588.81;;;14.98;99.39
75438;BME280;64015;49.392;15.582;2023-09-12T05:58:18;95587.81;;;15.07;99.18
75438;BME280;64015;49.392;15.582;2023-09-12T06:00:43;95594.16;;;15.20;98.67
75438;BME280;64015;49.392;15.582;2023-09-12T06:03:09;95602.69;;;15.30;99.24
75438;BME280;64015;49.392;15.582;2023-09-12T06:05:35;95609.34;;;15.42;98.39
75438;BME280;64015;49.392;15.582;2023-09-12T06:08:00;95605.78;;;15.46;98.01
75438;BME280;64015;49.392;15.582;2023-09-12T06:10:26;95599.84;;;15.49;97.71
75438;BME280;64015;49.392;15.582;2023-09-12T06:12:51;95599.78;;;15.54;98.21
75438;BME280;64015;49.392;15.582;2023-09-12T06:15:17;95603.78;;;15.65;98.15
75438;BME280;64015;49.392;15.582;2023-09-12T06:17:43;95594.88;;;15.70;97.27
75438;BME280;64015;49.392;15.582;2023-09-12T06:20:09;95615.47;;;15.87;96.78
75438;BME280;64015;49.392;15.582;2023-09-12T06:22:35;95594.88;;;15.92;96.49
75438;BME280;64015;49.392;15.582;2023-09-12T06:25:01;95591.75;;;15.99;95.96
75438;BME280;64015;49.392;15.582;2023-09-12T06:27:27;95599.34;;;16.14;95.29
75438;BME280;64015;49.392;15.582;2023-09-12T06:29:53;95583.13;;;16.24;94.39
75438;BME280;64015;49.392;15.582;2023-09-12T06:32:18;95602.28;;;16.43;93.98
75438;BME280;64015;49.392;15.582;2023-09-12T06:34:44;95599.06;;;16.55;93.00
75438;BME280;64015;49.392;15.582;2023-09-12T06:37:11;95600.88;;;16.77;92.69
75438;BME280;64015;49.392;15.582;2023-09-12T06:39:37;95595.72;;;16.89;92.96
75438;BME280;64015;49.392;15.582;2023-09-12T06:42:03;95605.94;;;17.04;92.31
75438;BME280;64015;49.392;15.582;2023-09-12T06:44:29;95602.19;;;17.23;91.78
75438;BME280;64015;49.392;15.582;2023-09-12T06:46:54;95596.41;;;17.38;90.41
75438;BME280;64015;49.392;15.582;2023-09-12T06:49:20;95593.25;;;17.44;89.87
75438;BME280;64015;49.392;15.582;2023-09-12T06:51:46;95607.38;;;17.62;88.99
75438;BME280;64015;49.392;15.582;2023-09-12T06:54:11;95611.63;;;17.72;88.16
75438;BME280;64015;49.392;15.582;2023-09-12T06:56:38;95601.72;;;17.81;87.45
75438;BME280;64015;49.392;15.582;2023-09-12T06:59:04;95602.47;;;17.99;86.28
75438;BME280;64015;49.392;15.582;2023-09-12T07:01:30;95603.88;;;18.05;85.62
75438;BME280;64015;49.392;15.582;2023-09-12T07:03:56;95600.41;;;18.13;84.75
75438;BME280;64015;49.392;15.582;2023-09-12T07:06:22;95602.06;;;18.26;84.92
75438;BME280;64015;49.392;15.582;2023-09-12T07:08:48;95594.50;;;18.37;84.29
75438;BME280;64015;49.392;15.582;2023-09-12T07:11:14;95590.53;;;18.51;83.86
75438;BME280;64015;49.392;15.582;2023-09-12T07:13:40;95596.75;;;18.64;83.14
75438;BME280;64015;49.392;15.582;2023-09-12T07:16:05;95593.41;;;18.76;82.37
75438;BME280;64015;49.392;15.582;2023-09-12T07:18:31;95596.66;;;18.90;82.19
75438;BME280;64015;49.392;15.582;2023-09-12T07:21:02;95590.13;;;18.99;82.00
75438;BME280;64015;49.392;15.582;2023-09-12T07:23:28;95598.16;;;19.20;81.55
75438;BME280;64015;49.392;15.582;2023-09-12T07:25:55;95598.03;;;19.37;80.85
75438;BME280;64015;49.392;15.582;2023-09-12T07:28:26;95608.22;;;19.65;80.01
75438;BME280;64015;49.392;15.582;2023-09-12T07:30:53;95601.94;;;19.82;79.42
75438;BME280;64015;49.392;15.582;2023-09-12T07:33:19;95595.16;;;19.96;78.29
75438;BME280;64015;49.392;15.582;2023-09-12T07:35:46;95595.78;;;20.14;77.47
75438;BME280;64015;49.392;15.582;2023-09-12T07:38:13;95601.09;;;20.35;76.52
75438;BME280;64015;49.392;15.582;2023-09-12T07:40:41;95593.75;;;20.44;74.98
75438;BME280;64015;49.392;15.582;2023-09-12T07:43:07;95603.91;;;20.63;74.34
75438;BME280;64015;49.392;15.582;2023-09-12T07:45:33;95606.47;;;20.83;73.97
75438;BME280;64015;49.392;15.582;2023-09-12T07:48:05;95596.16;;;21.10;73.33
75438;BME280;64015;49.392;15.582;2023-09-12T07:50:31;95593.94;;;21.12;72.64
75438;BME280;64015;49.392;15.582;2023-09-12T07:52:57;95588.91;;;21.22;72.31
75438;BME280;64015;49.392;15.582;2023-09-12T07:55:22;95586.84;;;21.32;71.96
75438;BME280;64015;49.392;15.582;2023-09-12T07:57:48;95592.84;;;21.53;72.47
75438;BME280;64015;49.392;15.582;2023-09-12T08:00:13;95596.47;;;21.73;71.52
75438;BME280;64015;49.392;15.582;2023-09-12T08:02:39;95594.75;;;21.80;70.74
75438;BME280;64015;49.392;15.582;2023-09-12T08:05:05;95592.97;;;21.84;70.49
75438;BME280;64015;49.392;15.582;2023-09-12T08:07:32;95584.63;;;21.89;70.41
75438;BME280;64015;49.392;15.582;2023-09-12T08:09:58;95593.34;;;21.99;69.14
75438;BME280;64015;49.392;15.582;2023-09-12T08:12:24;95596.66;;;22.08;70.55
75438;BME280;64015;49.392;15.582;2023-09-12T08:14:51;95581.88;;;22.14;70.14
75438;BME280;64015;49.392;15.582;2023-09-12T08:17:17;95588.38;;;22.28;69.10
75438;BME280;64015;49.392;15.582;2023-09-12T08:19:43;95588.09;;;22.33;69.19
75438;BME280;64015;49.392;15.582;2023-09-12T08:22:10;95589.09;;;22.41;68.61
75438;BME280;64015;49.392;15.582;2023-09-12T08:24:36;95584.13;;;22.59;67.81
75438;BME280;64015;49.392;15.582;2023-09-12T08:27:03;95582.47;;;22.54;67.59
75438;BME280;64015;49.392;15.582;2023-09-12T08:29:29;95586.31;;;22.85;67.11
75438;BME280;64015;49.392;15.582;2023-09-12T08:31:55;95584.28;;;22.97;67.63
75438;BME280;64015;49.392;15.582;2023-09-12T08:34:21;95583.91;;;23.15;66.34
75438;BME280;64015;49.392;15.582;2023-09-12T08:36:47;95583.34;;;23.25;66.19
75438;BME280;64015;49.392;15.582;2023-09-12T08:39:17;95589.03;;;23.39;65.52
75438;BME280;64015;49.392;15.582;2023-09-12T08:41:43;95574.72;;;23.54;65.93
75438;BME280;64015;49.392;15.582;2023-09-12T08:44:12;95578.28;;;23.58;64.57
75438;BME280;64015;49.392;15.582;2023-09-12T08:46:42;95575.13;;;23.72;65.84
75438;BME280;64015;49.392;15.582;2023-09-12T08:49:07;95573.22;;;23.95;64.27
75438;BME280;64015;49.392;15.582;2023-09-12T08:51:37;95567.63;;;23.85;64.95
75438;BME280;64015;49.392;15.582;2023-09-12T08:54:03;95562.88;;;24.20;63.51
75438;BME280;64015;49.392;15.582;2023-09-12T08:56:32;95560.91;;;24.36;62.18
75438;BME280;64015;49.392;15.582;2023-09-12T08:59:01;95554.78;;;24.39;62.40
75438;BME280;64015;49.392;15.582;2023-09-12T09:01:30;95560.63;;;24.68;61.15
75438;BME280;64015;49.392;15.582;2023-09-12T09:03:56;95560.44;;;24.80;61.25
75438;BME280;64015;49.392;15.582;2023-09-12T09:06:22;95562.75;;;24.81;60.78
75438;BME280;64015;49.392;15.582;2023-09-12T09:08:49;95560.44;;;25.06;60.45
75438;BME280;64015;49.392;15.582;2023-09-12T09:11:15;95557.56;;;25.22;61.25
75438;BME280;64015;49.392;15.582;2023-09-12T09:13:40;95557.78;;;25.40;59.45
75438;BME280;64015;49.392;15.582;2023-09-12T09:16:15;95544.41;;;25.47;58.11
75438;BME280;64015;49.392;15.582;2023-09-12T09:18:51;95558.63;;;25.44;59.39
75438;BME280;64015;49.392;15.582;2023-09-12T09:21:21;95558.63;;;25.44;58.12
75438;BME280;64015;49.392;15.582;2023-09-12T09:23:50;95567.16;;;25.46;58.75
75438;BME280;64015;49.392;15.582;2023-09-12T09:26:16;95564.31;;;25.65;57.04
75438;BME280;64015;49.392;15.582;2023-09-12T09:28:41;95561.25;;;25.67;56.80
75438;BME280;64015;49.392;15.582;2023-09-12T09:31:11;95555.28;;;25.87;55.47
75438;BME280;64015;49.392;15.582;2023-09-12T09:33:39;95566.56;;;26.30;54.35
75438;BME280;64015;49.392;15.582;2023-09-12T09:36:06;95565.81;;;26.33;54.30
75438;BME280;64015;49.392;15.582;2023-09-12T09:38:34;95556.59;;;26.37;54.74
75438;BME280;64015;49.392;15.582;2023-09-12T09:41:00;95549.34;;;26.52;54.49
75438;BME280;64015;49.392;15.582;2023-09-12T09:43:30;95555.59;;;26.56;54.54
75438;BME280;64015;49.392;15.582;2023-09-12T09:45:57;95556.50;;;26.74;51.82
75438;BME280;64015;49.392;15.582;2023-09-12T09:48:24;95553.88;;;26.85;51.64
75438;BME280;64015;49.392;15.582;2023-09-12T09:50:53;95556.31;;;27.01;50.12
75438;BME280;64015;49.392;15.582;2023-09-12T09:53:31;95555.28;;;27.27;50.39
75438;BME280;64015;49.392;15.582;2023-09-12T09:56:15;95557.81;;;27.64;49.14
75438;BME280;64015;49.392;15.582;2023-09-12T09:59:00;95562.13;;;27.79;49.79
75438;BME280;64015;49.392;15.582;2023-09-12T10:01:27;95557.13;;;27.92;47.83
75438;BME280;64015;49.392;15.582;2023-09-12T10:03:58;95548.22;;;27.95;48.19
75438;BME280;64015;49.392;15.582;2023-09-12T10:06:26;95555.22;;;28.06;48.50
75438;BME280;64015;49.392;15.582;2023-09-12T10:08:53;95548.28;;;28.19;47.29
75438;BME280;64015;49.392;15.582;2023-09-12T10:11:22;95548.72;;;28.25;47.24
75438;BME280;64015;49.392;15.582;2023-09-12T10:14:00;95552.97;;;28.76;45.70
75438;BME280;64015;49.392;15.582;2023-09-12T10:16:30;95547.91;;;28.74;46.08
75438;BME280;64015;49.392;15.582;2023-09-12T10:19:19;95540.16;;;29.01;44.42
75438;BME280;64015;49.392;15.582;2023-09-12T10:22:22;95529.69;;;29.00;43.91
75438;BME280;64015;49.392;15.582;2023-09-12T10:24:49;95525.44;;;28.88;43.54
75438;BME280;64015;49.392;15.582;2023-09-12T10:27:16;95527.66;;;29.43;41.73
75438;BME280;64015;49.392;15.582;2023-09-12T10:29:41;95526.25;;;29.93;40.06
75438;BME280;64015;49.392;15.582;2023-09-12T10:32:09;95530.53;;;29.94;39.03
75438;BME280;64015;49.392;15.582;2023-09-12T10:34:36;95527.94;;;29.69;39.48
75438;BME280;64015;49.392;15.582;2023-09-12T10:37:04;95522.16;;;29.57;40.31
75438;BME280;64015;49.392;15.582;2023-09-12T10:39:32;95525.75;;;30.16;38.71
75438;BME280;64015;49.392;15.582;2023-09-12T10:41:58;95500.44;;;33.63;32.58
75438;BME280;64015;49.392;15.582;2023-09-12T10:44:25;95513.97;;;36.15;28.53
75438;BME280;64015;49.392;15.582;2023-09-12T10:46:52;95517.84;;;33.10;32.67
75438;BME280;64015;49.392;15.582;2023-09-12T10:49:18;95519.81;;;33.09;32.41
75438;BME280;64015;49.392;15.582;2023-09-12T10:51:46;95527.63;;;31.15;36.17
75438;BME280;64015;49.392;15.582;2023-09-12T10:54:14;95519.44;;;32.14;35.15
75438;BME280;64015;49.392;15.582;2023-09-12T10:56:40;95517.72;;;31.97;35.09
75438;BME280;64015;49.392;15.582;2023-09-12T11:01:36;95518.97;;;40.43;22.75
75438;BME280;64015;49.392;15.582;2023-09-12T11:06:53;95528.97;;;41.35;20.31
75438;BME280;64015;49.392;15.582;2023-09-12T11:11:46;95523.66;;;43.97;17.97
75438;BME280;64015;49.392;15.582;2023-09-12T11:14:12;95523.00;;;44.39;16.87
75438;BME280;64015;49.392;15.582;2023-09-12T11:16:38;95524.75;;;43.33;18.60
75438;BME280;64015;49.392;15.582;2023-09-12T11:21:44;95531.00;;;36.74;25.51
75438;BME280;64015;49.392;15.582;2023-09-12T11:24:10;95537.31;;;33.15;29.88
75438;BME280;64015;49.392;15.582;2023-09-12T11:26:55;95520.69;;;38.39;23.24
75438;BME280;64015;49.392;15.582;2023-09-12T11:29:20;95518.06;;;42.00;19.58
75438;BME280;64015;49.392;15.582;2023-09-12T11:31:59;95521.31;;;43.90;17.27
75438;BME280;64015;49.392;15.582;2023-09-12T11:34:26;95526.56;;;39.27;21.52
75438;BME280;64015;49.392;15.582;2023-09-12T11:36:57;95527.66;;;36.91;24.74
75438;BME280;64015;49.392;15.582;2023-09-12T11:39:32;95528.78;;;35.22;27.01
75438;BME280;64015;49.392;15.582;2023-09-12T11:41:59;95517.34;;;39.85;22.49
75438;BME280;64015;49.392;15.582;2023-09-12T11:44:25;95510.41;;;42.94;18.59
75438;BME280;64015;49.392;15.582;2023-09-12T11:46:58;95510.69;;;41.53;20.02
75438;BME280;64015;49.392;15.582;2023-09-12T11:49:35;95512.88;;;41.49;19.95
75438;BME280;64015;49.392;15.582;2023-09-12T11:52:01;95502.91;;;43.67;18.07
75438;BME280;64015;49.392;15.582;2023-09-12T11:54:29;95503.69;;;44.30;17.42
75438;BME280;64015;49.392;15.582;2023-09-12T11:56:55;95508.63;;;44.89;16.72
75438;BME280;64015;49.392;15.582;2023-09-12T11:59:30;95504.13;;;45.03;16.59
75438;BME280;64015;49.392;15.582;2023-09-12T12:01:56;95512.44;;;44.91;16.71
75438;BME280;64015;49.392;15.582;2023-09-12T12:04:23;95507.34;;;45.49;16.29
75438;BME280;64015;49.392;15.582;2023-09-12T12:06:51;95502.50;;;45.39;16.38
75438;BME280;64015;49.392;15.582;2023-09-12T12:09:17;95490.59;;;44.36;16.26
75438;BME280;64015;49.392;15.582;2023-09-12T12:11:47;95495.31;;;43.93;16.01
75438;BME280;64015;49.392;15.582;2023-09-12T12:14:15;95498.81;;;44.19;16.38
75438;BME280;64015;49.392;15.582;2023-09-12T12:16:42;95499.28;;;44.97;16.20
75438;BME280;64015;49.392;15.582;2023-09-12T12:19:09;95493.16;;;43.31;16.63
75438;BME280;64015;49.392;15.582;2023-09-12T12:21:41;95501.47;;;44.34;16.55
75438;BME280;64015;49.392;15.582;2023-09-12T12:24:15;95507.59;;;44.44;17.28
75438;BME280;64015;49.392;15.582;2023-09-12T12:26:42;95491.06;;;45.37;15.56
75438;BME280;64015;49.392;15.582;2023-09-12T12:29:10;95491.91;;;44.89;16.56
75438;BME280;64015;49.392;15.582;2023-09-12T12:31:37;95486.13;;;44.92;16.50
75438;BME280;64015;49.392;15.582;2023-09-12T12:34:02;95490.88;;;44.86;16.50
75438;BME280;64015;49.392;15.582;2023-09-12T12:36:29;95489.31;;;45.39;16.21
75438;BME280;64015;49.392;15.582;2023-09-12T12:38:55;95495.41;;;44.36;16.90
75438;BME280;64015;49.392;15.582;2023-09-12T12:41:28;95495.56;;;43.17;17.83
75438;BME280;64015;49.392;15.582;2023-09-12T12:43:57;95494.03;;;43.16;17.49
75438;BME280;64015;49.392;15.582;2023-09-12T12:46:26;95488.34;;;41.42;18.81
75438;BME280;64015;49.392;15.582;2023-09-12T12:48:52;95487.44;;;38.74;20.87
75438;BME280;64015;49.392;15.582;2023-09-12T12:51:20;95498.00;;;36.86;22.14
75438;BME280;64015;49.392;15.582;2023-09-12T12:53:51;95494.97;;;37.28;23.32
75438;BME280;64015;49.392;15.582;2023-09-12T12:56:20;95494.81;;;36.62;22.89
75438;BME280;64015;49.392;15.582;2023-09-12T12:58:47;95485.91;;;38.73;21.95
75438;BME280;64015;49.392;15.582;2023-09-12T13:01:15;95473.16;;;40.75;19.48